createdAt,value
2019-01-03T00:02:27.247Z,9.00
2019-01-03T00:05:15.566Z,4.53
2019-01-03T00:11:04.852Z,18.00
2019-01-03T00:13:50.937Z,31.70
2019-01-03T00:16:36.646Z,14.13
2019-01-03T00:19:16.537Z,13.50
2019-01-03T00:21:49.153Z,7.73
2019-01-03T00:24:19.068Z,7.43
2019-01-03T00:26:53.712Z,6.03
2019-01-03T00:29:36.324Z,8.07
2019-01-03T00:32:06.252Z,4.23
2019-01-03T00:34:42.234Z,6.80
2019-01-03T00:37:18.189Z,6.53
2019-01-03T00:39:56.617Z,6.90
2019-01-03T00:42:26.511Z,4.77
2019-01-03T00:45:12.667Z,5.40
2019-01-03T00:47:54.310Z,12.60
2019-01-03T00:50:29.893Z,6.43
2019-01-03T00:53:11.582Z,9.60
2019-01-03T00:55:47.099Z,5.43
2019-01-03T00:58:17.010Z,4.80
2019-01-03T01:00:49.344Z,5.80
2019-01-03T01:03:36.812Z,9.27
2019-01-03T01:06:09.526Z,7.07
2019-01-03T01:08:39.510Z,6.87
2019-01-03T01:11:20.877Z,8.73
2019-01-03T01:13:59.588Z,6.73
2019-01-03T01:16:29.467Z,8.57
2019-01-03T01:19:15.314Z,8.63
2019-01-03T01:22:01.306Z,8.30
2019-01-03T01:24:33.907Z,7.10
2019-01-03T01:27:15.265Z,8.50
2019-01-03T01:30:00.872Z,8.33
2019-01-03T01:32:36.493Z,6.43
2019-01-03T01:35:18.057Z,6.43
2019-01-03T01:38:03.034Z,8.60
2019-01-03T01:40:39.103Z,13.63
2019-01-03T01:43:25.005Z,5.50
2019-01-03T01:46:03.938Z,5.07
2019-01-03T01:48:49.857Z,11.90
2019-01-03T01:51:25.195Z,6.20
2019-01-03T01:54:12.741Z,7.43
2019-01-03T01:56:42.667Z,6.33
2019-01-03T01:59:24.374Z,6.43
2019-01-03T02:01:57.337Z,12.30
2019-01-03T02:04:35.830Z,6.43
2019-01-03T02:07:05.743Z,5.57
2019-01-03T02:09:44.429Z,7.83
2019-01-03T02:12:30.307Z,5.10
2019-01-03T02:15:12.031Z,6.13
2019-01-03T02:17:57.830Z,7.17
2019-01-03T02:20:39.554Z,5.73
2019-01-03T02:23:21.243Z,9.30
2019-01-03T02:26:07.385Z,4.67
2019-01-03T02:28:52.173Z,6.73
2019-01-03T02:31:39.886Z,3.77
2019-01-03T02:34:25.885Z,6.43
2019-01-03T02:37:11.629Z,5.20
2019-01-03T02:43:33.072Z,3.97
2019-01-03T02:46:05.614Z,7.60
2019-01-03T02:48:47.581Z,3.67
2019-01-03T02:51:32.335Z,5.40
2019-01-03T02:54:05.181Z,8.13
2019-01-03T02:56:40.548Z,4.50
2019-01-03T02:59:19.533Z,4.30
2019-01-03T03:01:52.376Z,4.07
2019-01-03T03:04:25.084Z,4.40
2019-01-03T03:06:54.995Z,6.60
2019-01-03T03:09:24.950Z,4.43
2019-01-03T03:12:10.566Z,5.47
2019-01-03T03:14:43.089Z,8.30
2019-01-03T03:17:18.668Z,6.70
2019-01-03T03:19:51.540Z,6.60
2019-01-03T03:22:27.471Z,5.43
2019-01-03T03:25:13.313Z,4.77
2019-01-03T03:27:58.829Z,5.87
2019-01-03T03:30:44.732Z,5.90
2019-01-03T03:33:20.455Z,5.13
2019-01-03T03:35:56.547Z,4.30
2019-01-03T03:38:29.425Z,5.50
2019-01-03T03:40:59.341Z,4.47
2019-01-03T03:43:34.687Z,3.70
2019-01-03T03:46:16.268Z,3.70
2019-01-03T03:48:54.894Z,3.60
2019-01-03T03:51:24.803Z,3.73
2019-01-03T03:54:00.413Z,7.30
2019-01-03T03:56:30.329Z,7.13
2019-01-03T03:59:23.525Z,4.10
2019-01-03T04:02:09.291Z,5.50
2019-01-03T04:04:55.347Z,7.07
2019-01-03T04:07:31.050Z,4.03
2019-01-03T04:10:00.982Z,6.80
2019-01-03T04:12:39.756Z,5.43
2019-01-03T04:15:25.300Z,7.40
2019-01-03T04:18:04.160Z,8.10
2019-01-03T04:20:51.948Z,7.67
2019-01-03T04:23:27.306Z,5.27
2019-01-03T04:26:02.649Z,3.63
2019-01-03T04:28:48.773Z,8.10
2019-01-03T04:31:21.369Z,6.20
2019-01-03T04:34:07.145Z,4.93
2019-01-03T04:36:37.034Z,11.13
2019-01-03T04:39:08.262Z,6.57
2019-01-03T04:41:54.025Z,7.23
2019-01-03T04:44:29.901Z,8.20
2019-01-03T04:47:17.762Z,3.70
2019-01-03T04:50:12.097Z,5.73
2019-01-03T04:52:42.009Z,5.73
2019-01-03T04:55:27.505Z,4.57
2019-01-03T04:58:13.278Z,6.43
2019-01-03T05:00:43.175Z,5.97
2019-01-03T05:03:18.745Z,8.93
2019-01-03T05:05:54.114Z,7.73
2019-01-03T05:08:32.717Z,7.97
2019-01-03T05:11:18.777Z,5.77
2019-01-03T05:13:51.114Z,5.33
2019-01-03T05:16:21.028Z,5.97
2019-01-03T05:19:06.762Z,7.40
2019-01-03T05:21:52.903Z,5.00
2019-01-03T05:24:31.558Z,5.20
2019-01-03T05:27:04.451Z,7.57
2019-01-03T05:29:50.248Z,8.00
2019-01-03T05:32:25.610Z,6.23
2019-01-03T05:35:01.485Z,5.57
2019-01-03T05:37:40.143Z,8.20
2019-01-03T05:40:25.738Z,5.40
2019-01-03T05:43:04.542Z,4.90
2019-01-03T05:45:34.465Z,5.20
2019-01-03T05:48:10.012Z,6.40
2019-01-03T05:50:55.861Z,8.03
2019-01-03T05:53:37.707Z,7.03
2019-01-03T05:56:23.597Z,7.77
2019-01-03T05:58:53.514Z,4.73
2019-01-03T06:01:23.415Z,4.80
2019-01-03T06:03:53.417Z,5.60
2019-01-03T06:06:29.407Z,9.63
2019-01-03T06:09:52.005Z,6.97
2019-01-03T06:12:37.735Z,4.33
2019-01-03T06:15:13.565Z,7.00
2019-01-03T06:17:59.333Z,4.80
2019-01-03T06:20:34.881Z,10.17
2019-01-03T06:23:10.501Z,4.97
2019-01-03T06:25:42.949Z,7.10
2019-01-03T06:28:21.671Z,5.50
2019-01-03T06:31:03.391Z,5.17
2019-01-03T06:33:33.286Z,8.17
2019-01-03T06:36:19.119Z,8.80
2019-01-03T06:39:04.967Z,5.70
2019-01-03T06:41:40.672Z,4.10
2019-01-03T06:44:25.300Z,4.97
2019-01-03T06:47:10.021Z,14.30
2019-01-03T06:49:56.125Z,6.00
2019-01-03T06:52:41.964Z,9.73
2019-01-03T06:55:11.868Z,7.87
2019-01-03T06:57:50.435Z,10.33
2019-01-03T07:00:22.973Z,7.20
2019-01-03T07:03:04.974Z,6.20
2019-01-03T07:05:40.838Z,4.03
2019-01-03T07:08:22.710Z,8.97
2019-01-03T07:11:08.231Z,6.13
2019-01-03T07:13:49.913Z,6.70
2019-01-03T07:16:28.531Z,4.80
2019-01-03T07:18:58.425Z,5.30
2019-01-03T07:21:28.355Z,6.63
2019-01-03T07:24:00.862Z,7.80
2019-01-03T07:26:30.745Z,9.87
2019-01-03T07:29:16.448Z,6.10
2019-01-03T07:32:04.156Z,9.97
2019-01-03T07:34:49.859Z,7.57
2019-01-03T07:37:35.669Z,12.77
2019-01-03T07:40:22.840Z,8.97
2019-01-03T07:43:08.591Z,7.43
2019-01-03T07:45:50.453Z,8.57
2019-01-03T07:48:22.743Z,9.63
2019-01-03T07:50:52.631Z,5.20
2019-01-03T07:53:37.157Z,9.27
2019-01-03T07:56:23.204Z,8.33
2019-01-03T07:59:09.104Z,8.77
2019-01-03T08:01:44.857Z,10.57
2019-01-03T08:04:35.060Z,6.33
2019-01-03T08:07:23.049Z,11.73
2019-01-03T08:10:10.769Z,7.67
2019-01-03T08:12:56.883Z,8.87
2019-01-03T08:15:35.817Z,9.10
2019-01-03T08:18:11.496Z,11.87
2019-01-03T08:20:44.111Z,10.57
2019-01-03T08:23:29.913Z,9.57
2019-01-03T08:26:02.472Z,7.83
2019-01-03T08:28:32.361Z,10.10
2019-01-03T08:31:11.172Z,6.50
2019-01-03T08:33:41.060Z,9.53
2019-01-03T08:36:16.695Z,13.50
2019-01-03T08:38:55.764Z,12.10
2019-01-03T08:41:41.813Z,8.30
2019-01-03T08:44:27.898Z,7.50
2019-01-03T08:47:09.603Z,10.00
2019-01-03T08:49:45.181Z,9.50
2019-01-03T08:52:17.889Z,6.13
2019-01-03T08:55:03.687Z,13.60
2019-01-03T08:57:39.299Z,8.70
2019-01-03T09:00:23.097Z,10.90
2019-01-03T09:03:00.371Z,10.53
2019-01-03T09:05:30.675Z,13.13
2019-01-03T09:08:03.295Z,9.73
2019-01-03T09:10:49.087Z,9.60
2019-01-03T09:13:30.571Z,14.57
2019-01-03T09:16:16.362Z,11.40
2019-01-03T09:22:18.298Z,14.27
2019-01-03T09:24:48.191Z,10.23
2019-01-03T09:27:26.856Z,12.47
2019-01-03T09:30:12.673Z,7.53
2019-01-03T09:33:00.427Z,13.47
2019-01-03T09:35:39.078Z,12.20
2019-01-03T09:38:11.970Z,6.97
2019-01-03T09:40:47.417Z,8.73
2019-01-03T09:43:23.088Z,10.33
2019-01-03T09:45:51.360Z,8.83
2019-01-03T09:48:19.619Z,9.50
2019-01-03T09:50:47.937Z,10.67
2019-01-03T09:53:16.169Z,11.27
2019-01-03T09:55:44.442Z,11.03
2019-01-03T09:58:12.717Z,11.70
2019-01-03T10:00:41.011Z,13.90
2019-01-03T10:03:09.551Z,16.43
2019-01-03T10:05:37.879Z,13.43
2019-01-03T10:08:07.404Z,9.97
2019-01-03T10:10:36.900Z,13.13
2019-01-03T10:13:05.269Z,12.10
2019-01-03T10:15:33.572Z,11.60
2019-01-03T10:18:01.827Z,13.50
2019-01-03T10:20:30.079Z,12.07
2019-01-03T10:22:58.352Z,10.23
2019-01-03T10:25:26.612Z,11.87
2019-01-03T10:27:54.920Z,11.13
2019-01-03T10:30:23.227Z,12.77
2019-01-03T10:32:51.477Z,13.30
2019-01-03T10:35:19.761Z,11.20
2019-01-03T10:37:48.035Z,18.73
2019-01-03T10:40:16.363Z,12.50
2019-01-03T10:42:44.627Z,14.40
2019-01-03T10:45:12.900Z,13.87
2019-01-03T10:47:41.243Z,9.97
2019-01-03T10:50:09.518Z,12.47
2019-01-03T10:52:37.780Z,11.83
2019-01-03T10:55:06.984Z,13.83
2019-01-03T10:57:35.263Z,15.07
2019-01-03T11:00:04.664Z,13.77
2019-01-03T11:02:32.941Z,14.17
2019-01-03T11:05:01.219Z,12.40
2019-01-03T11:07:31.122Z,15.50
2019-01-03T11:09:59.405Z,18.47
2019-01-03T11:12:27.789Z,13.20
2019-01-03T11:14:56.032Z,14.03
2019-01-03T11:17:24.315Z,11.57
2019-01-03T11:19:52.575Z,23.60
2019-01-03T11:22:20.943Z,13.97
2019-01-03T11:24:49.233Z,15.27
2019-01-03T11:27:17.521Z,13.93
2019-01-03T11:29:45.798Z,15.93
2019-01-03T11:32:14.064Z,17.07
2019-01-03T11:34:42.375Z,19.90
2019-01-03T11:37:10.640Z,10.37
2019-01-03T11:42:50.970Z,15.80
2019-01-03T11:45:19.255Z,17.30
2019-01-03T11:47:47.522Z,17.20
2019-01-03T11:50:15.813Z,17.10
2019-01-03T11:52:44.122Z,15.77
2019-01-03T11:55:12.394Z,14.30
2019-01-03T11:57:40.712Z,22.50
2019-01-03T12:00:10.427Z,15.27
2019-01-03T12:02:38.713Z,17.40
2019-01-03T12:05:08.125Z,17.40
2019-01-03T12:07:57.395Z,18.13
2019-01-03T12:10:25.699Z,19.43
2019-01-03T12:12:53.987Z,19.97
2019-01-03T12:15:22.265Z,20.67
2019-01-03T12:17:50.532Z,20.37
2019-01-03T12:20:18.816Z,16.13
2019-01-03T12:22:47.097Z,18.80
2019-01-03T12:25:15.399Z,16.50
2019-01-03T12:27:43.696Z,14.40
2019-01-03T12:30:12.153Z,16.80
2019-01-03T12:32:47.662Z,20.80
2019-01-03T12:35:15.989Z,19.80
2019-01-03T12:37:44.283Z,23.23
2019-01-03T12:40:17.726Z,20.53
2019-01-03T12:42:46.021Z,21.80
2019-01-03T12:45:14.377Z,22.73
2019-01-03T12:47:42.662Z,19.53
2019-01-03T12:50:11.207Z,21.53
2019-01-03T12:52:39.579Z,17.70
2019-01-03T12:55:07.868Z,16.83
2019-01-03T12:57:36.169Z,22.13
2019-01-03T13:00:08.364Z,20.27
2019-01-03T13:02:38.669Z,22.23
2019-01-03T13:05:07.347Z,18.70
2019-01-03T13:07:35.685Z,19.33
2019-01-03T13:10:05.816Z,26.63
2019-01-03T13:12:34.098Z,20.20
2019-01-03T13:15:02.459Z,15.03
2019-01-03T13:20:54.114Z,18.10
2019-01-03T13:23:22.370Z,22.33
2019-01-03T13:25:50.848Z,27.00
2019-01-03T13:28:19.986Z,20.73
2019-01-03T13:30:48.255Z,15.67
2019-01-03T13:33:16.581Z,19.97
2019-01-03T13:35:44.907Z,15.80
2019-01-03T13:38:13.166Z,15.70
2019-01-03T13:40:41.458Z,19.30
2019-01-03T13:43:11.363Z,19.63
2019-01-03T13:45:41.272Z,16.90
2019-01-03T13:48:12.536Z,15.87
2019-01-03T13:50:43.981Z,18.20
2019-01-03T13:53:12.263Z,22.53
2019-01-03T13:55:42.403Z,20.87
2019-01-03T13:58:12.268Z,18.90
2019-01-03T14:00:44.826Z,15.87
2019-01-03T14:03:13.111Z,18.97
2019-01-03T14:05:41.388Z,17.37
2019-01-03T14:08:11.307Z,20.97
2019-01-03T14:10:39.675Z,23.83
2019-01-03T14:13:09.258Z,15.40
2019-01-03T14:15:37.487Z,22.37
2019-01-03T14:18:05.820Z,23.97
2019-01-03T14:20:34.102Z,17.20
2019-01-03T14:23:02.370Z,18.30
2019-01-03T14:25:32.199Z,23.87
2019-01-03T14:28:00.471Z,18.83
2019-01-03T14:30:28.755Z,19.90
2019-01-03T14:32:57.048Z,17.53
2019-01-03T14:35:25.326Z,26.07
2019-01-03T14:40:38.045Z,21.17
2019-01-03T14:43:06.409Z,17.87
2019-01-03T14:45:34.678Z,18.43
2019-01-03T14:48:02.943Z,19.47
2019-01-03T14:50:33.397Z,21.50
2019-01-03T14:53:01.662Z,24.17
2019-01-03T14:55:29.951Z,27.00
2019-01-03T14:57:58.222Z,22.10
2019-01-03T15:00:26.494Z,20.73
2019-01-03T15:02:54.852Z,23.30
2019-01-03T15:05:23.146Z,24.17
2019-01-03T15:07:51.439Z,23.80
2019-01-03T15:10:19.734Z,24.43
2019-01-03T15:12:48.031Z,19.70
2019-01-03T15:15:17.935Z,20.23
2019-01-03T15:17:46.225Z,18.47
2019-01-03T15:20:14.511Z,18.83
2019-01-03T15:22:42.820Z,19.57
2019-01-03T15:25:11.175Z,19.03
2019-01-03T15:27:42.791Z,20.90
2019-01-03T15:30:14.082Z,19.50
2019-01-03T15:32:42.403Z,25.63
2019-01-03T15:35:12.323Z,20.77
2019-01-03T15:37:42.243Z,24.07
2019-01-03T15:43:28.556Z,18.90
2019-01-03T15:45:56.847Z,21.60
2019-01-03T15:48:25.165Z,22.87
2019-01-03T15:50:53.436Z,17.97
2019-01-03T15:53:21.735Z,26.17
2019-01-03T15:55:50.006Z,24.00
2019-01-03T15:58:18.297Z,20.40
2019-01-03T16:00:46.636Z,23.27
2019-01-03T16:03:14.895Z,22.40
2019-01-03T16:05:43.238Z,22.53
2019-01-03T16:08:11.533Z,19.63
2019-01-03T16:10:39.794Z,23.03
2019-01-03T16:13:08.105Z,21.93
2019-01-03T16:15:36.432Z,21.10
2019-01-03T16:18:04.774Z,24.67
2019-01-03T16:20:33.085Z,24.10
2019-01-03T16:23:03.995Z,23.43
2019-01-03T16:25:34.969Z,23.63
2019-01-03T16:28:04.505Z,24.40
2019-01-03T16:30:34.191Z,26.93
2019-01-03T16:33:02.485Z,24.23
2019-01-03T16:35:30.871Z,30.33
2019-01-03T16:37:59.395Z,26.97
2019-01-03T16:40:27.684Z,26.93
2019-01-03T16:42:55.954Z,31.53
2019-01-03T16:45:24.235Z,27.37
2019-01-03T16:47:52.546Z,25.00
2019-01-03T16:50:20.810Z,30.13
2019-01-03T16:52:49.123Z,22.33
2019-01-03T16:55:17.400Z,19.27
2019-01-03T16:57:45.685Z,22.17
2019-01-03T17:00:13.961Z,22.00
2019-01-03T17:02:42.221Z,23.93
2019-01-03T17:05:10.593Z,21.63
2019-01-03T17:07:38.846Z,23.03
2019-01-03T17:10:10.325Z,22.70
2019-01-03T17:12:38.634Z,21.70
2019-01-03T17:15:07.178Z,26.13
2019-01-03T17:17:35.462Z,25.87
2019-01-03T17:20:05.864Z,24.03
2019-01-03T17:22:34.177Z,23.53
2019-01-03T17:25:02.475Z,20.10
2019-01-03T17:27:30.748Z,25.70
2019-01-03T17:29:59.029Z,23.07
2019-01-03T17:32:27.322Z,27.53
2019-01-03T17:34:55.618Z,22.00
2019-01-03T17:37:23.883Z,26.07
2019-01-03T17:39:52.203Z,23.20
2019-01-03T17:42:20.461Z,24.97
2019-01-03T17:44:48.738Z,28.40
2019-01-03T17:47:17.034Z,22.37
2019-01-03T17:49:45.327Z,24.37
2019-01-03T17:52:13.594Z,31.87
2019-01-03T17:54:41.853Z,32.17
2019-01-03T17:57:10.123Z,30.93
2019-01-03T17:59:38.386Z,29.50
2019-01-03T18:02:07.018Z,25.10
2019-01-03T18:04:35.309Z,25.70
2019-01-03T18:07:03.575Z,28.37
2019-01-03T18:09:31.867Z,28.03
2019-01-03T18:12:00.107Z,22.97
2019-01-03T18:14:28.391Z,27.77
2019-01-03T18:16:56.690Z,28.60
2019-01-03T18:19:24.964Z,26.70
2019-01-03T18:21:53.242Z,27.03
2019-01-03T18:24:21.535Z,30.13
2019-01-03T18:26:49.825Z,30.13
2019-01-03T18:29:18.141Z,31.60
2019-01-03T18:31:46.420Z,25.40
2019-01-03T18:34:14.670Z,34.17
2019-01-03T18:36:42.950Z,25.90
2019-01-03T18:39:14.262Z,28.73
2019-01-03T18:41:42.540Z,26.20
2019-01-03T18:44:10.919Z,23.93
2019-01-03T18:46:39.193Z,26.93
2019-01-03T18:49:07.492Z,22.93
2019-01-03T18:51:35.764Z,28.67
2019-01-03T18:54:05.800Z,22.90
2019-01-03T18:56:35.410Z,21.83
2019-01-03T18:59:03.830Z,28.20
2019-01-03T19:01:32.129Z,36.90
2019-01-03T19:04:00.391Z,31.60
2019-01-03T19:06:28.681Z,28.37
2019-01-03T19:08:57.005Z,35.67
2019-01-03T19:11:25.287Z,31.33
2019-01-03T19:13:53.558Z,24.90
2019-01-03T19:16:21.839Z,28.43
2019-01-03T19:18:50.100Z,25.50
2019-01-03T19:21:20.633Z,22.83
2019-01-03T19:23:55.259Z,23.53
2019-01-03T19:26:19.311Z,26.50
2019-01-03T19:28:47.582Z,23.70
2019-01-03T19:31:15.866Z,25.00
2019-01-03T19:33:44.155Z,27.67
2019-01-03T19:36:12.493Z,23.27
2019-01-03T19:38:40.803Z,25.03
2019-01-03T19:41:09.074Z,25.00
2019-01-03T19:43:37.344Z,26.60
2019-01-03T19:46:05.626Z,28.80
2019-01-03T19:48:33.902Z,26.53
2019-01-03T19:51:02.234Z,26.57
2019-01-03T19:53:30.473Z,25.73
2019-01-03T19:55:58.845Z,24.40
2019-01-03T19:58:27.125Z,26.40
2019-01-03T20:00:55.414Z,26.57
2019-01-03T20:03:23.678Z,22.10
2019-01-03T20:05:52.052Z,27.73
2019-01-03T20:08:20.337Z,21.47
2019-01-03T20:10:48.692Z,24.03
2019-01-03T20:13:16.974Z,20.73
2019-01-03T20:15:45.250Z,25.60
2019-01-03T20:18:13.522Z,25.90
2019-01-03T20:20:43.438Z,23.37
2019-01-03T20:23:11.810Z,25.27
2019-01-03T20:25:40.098Z,25.57
2019-01-03T20:28:08.392Z,25.80
2019-01-03T20:30:36.682Z,21.03
2019-01-03T20:33:04.953Z,23.30
2019-01-03T20:35:33.237Z,23.37
2019-01-03T20:38:01.598Z,25.87
2019-01-03T20:40:29.934Z,21.90
2019-01-03T20:42:58.208Z,28.97
2019-01-03T20:45:26.586Z,29.67
2019-01-03T20:47:54.918Z,22.30
2019-01-03T20:50:23.210Z,21.50
2019-01-03T20:52:51.504Z,24.10
2019-01-03T20:55:19.854Z,22.33
2019-01-03T20:57:48.139Z,21.67
2019-01-03T21:00:16.547Z,22.07
2019-01-03T21:02:44.944Z,24.03
2019-01-03T21:05:13.232Z,21.70
2019-01-03T21:07:41.498Z,20.77
2019-01-03T21:10:11.137Z,25.87
2019-01-03T21:12:39.499Z,32.03
2019-01-03T21:15:13.401Z,35.10
2019-01-03T21:17:41.752Z,24.90
2019-01-03T21:20:12.374Z,25.73
2019-01-03T21:22:40.900Z,25.53
2019-01-03T21:25:09.815Z,28.07
2019-01-03T21:27:39.730Z,29.27
2019-01-03T21:30:11.429Z,28.20
2019-01-03T21:32:39.700Z,27.73
2019-01-03T21:35:08.138Z,29.47
2019-01-03T21:37:36.411Z,23.97
2019-01-03T21:40:07.746Z,27.00
2019-01-03T21:42:38.877Z,22.03
2019-01-03T21:45:07.476Z,25.00
2019-01-03T21:47:35.813Z,24.03
2019-01-03T21:50:06.332Z,24.13
2019-01-03T21:52:34.638Z,23.80
2019-01-03T21:55:02.944Z,27.03
2019-01-03T21:57:31.191Z,25.20
2019-01-03T21:59:59.471Z,21.73
2019-01-03T22:02:27.936Z,25.60
2019-01-03T22:04:56.282Z,22.57
2019-01-03T22:07:24.665Z,21.27
2019-01-03T22:09:52.922Z,23.10
2019-01-03T22:12:21.230Z,25.73
2019-01-03T22:14:49.524Z,26.70
2019-01-03T22:17:19.457Z,20.67
2019-01-03T22:19:47.737Z,25.10
2019-01-03T22:22:16.154Z,24.73
2019-01-03T22:24:44.430Z,23.50
2019-01-03T22:27:12.685Z,25.30
2019-01-03T22:29:43.975Z,25.43
2019-01-03T22:32:12.233Z,25.53
2019-01-03T22:34:40.522Z,21.70
2019-01-03T22:37:09.003Z,23.90
2019-01-03T22:39:37.294Z,24.50
2019-01-03T22:42:05.559Z,24.37
2019-01-03T22:44:33.835Z,21.30
2019-01-03T22:47:02.122Z,24.73
2019-01-03T22:49:31.926Z,22.63
2019-01-03T22:52:00.189Z,25.63
2019-01-03T22:54:28.614Z,20.87
2019-01-03T22:56:56.894Z,21.43
2019-01-03T22:59:25.196Z,24.97
2019-01-03T23:01:53.509Z,23.50
2019-01-03T23:04:21.790Z,25.77
2019-01-03T23:06:50.125Z,25.10
2019-01-03T23:09:20.519Z,23.10
2019-01-03T23:11:48.832Z,20.83
2019-01-03T23:14:17.156Z,22.10
2019-01-03T23:16:45.417Z,22.17
2019-01-03T23:19:13.695Z,21.87
2019-01-03T23:21:41.955Z,22.33
2019-01-03T23:24:10.262Z,21.23
2019-01-03T23:26:38.531Z,19.57
2019-01-03T23:29:06.822Z,22.33
2019-01-03T23:31:35.095Z,20.17
2019-01-03T23:34:03.384Z,23.97
2019-01-03T23:36:31.660Z,18.47
2019-01-03T23:38:59.955Z,24.47
2019-01-03T23:41:28.262Z,19.30
2019-01-03T23:43:56.573Z,19.63
2019-01-03T23:46:24.851Z,22.97
2019-01-03T23:48:53.152Z,17.40
2019-01-03T23:51:21.414Z,17.73
2019-01-03T23:53:49.769Z,21.63
2019-01-03T23:56:18.057Z,20.13
2019-01-03T23:58:46.331Z,20.43
